createdAt,value
2022-10-16T00:01:12.334Z,20.81
2022-10-16T00:03:39.075Z,20.79
2022-10-16T00:06:05.459Z,20.77
2022-10-16T00:08:32.106Z,20.76
2022-10-16T00:11:02.811Z,20.75
2022-10-16T00:13:29.171Z,20.74
2022-10-16T00:15:56.063Z,20.73
2022-10-16T00:18:22.448Z,20.71
2022-10-16T00:20:48.920Z,20.71
2022-10-16T00:23:15.354Z,20.70
2022-10-16T00:25:41.602Z,20.68
2022-10-16T00:28:07.925Z,20.66
2022-10-16T00:30:34.183Z,20.65
2022-10-16T00:33:00.630Z,20.63
2022-10-16T00:35:26.989Z,20.62
2022-10-16T00:37:53.311Z,20.62
2022-10-16T00:40:19.587Z,20.61
2022-10-16T00:42:46.194Z,20.58
2022-10-16T00:45:12.663Z,20.55
2022-10-16T00:47:46.083Z,20.54
2022-10-16T00:50:17.370Z,20.50
2022-10-16T00:52:45.300Z,20.50
2022-10-16T00:55:11.832Z,20.47
2022-10-16T00:57:38.850Z,20.45
2022-10-16T01:00:07.618Z,20.44
2022-10-16T01:02:33.922Z,20.40
2022-10-16T01:05:00.531Z,20.40
2022-10-16T01:07:27.098Z,20.39
2022-10-16T01:10:16.967Z,20.39
2022-10-16T01:13:02.073Z,20.36
2022-10-16T01:15:47.284Z,20.35
2022-10-16T01:18:34.948Z,20.34
2022-10-16T01:21:05.864Z,20.33
2022-10-16T01:23:51.073Z,20.33
2022-10-16T01:26:17.678Z,20.35
2022-10-16T01:28:52.791Z,20.35
2022-10-16T01:31:20.858Z,20.35
2022-10-16T01:33:50.071Z,20.36
2022-10-16T01:36:20.703Z,20.37
2022-10-16T01:38:49.491Z,20.36
2022-10-16T01:41:18.709Z,20.37
2022-10-16T01:43:48.854Z,20.36
2022-10-16T01:46:17.776Z,20.34
2022-10-16T01:48:44.208Z,20.33
2022-10-16T01:51:12.462Z,20.32
2022-10-16T01:53:40.095Z,20.31
2022-10-16T01:56:09.486Z,20.28
2022-10-16T01:58:38.892Z,20.27
2022-10-16T02:01:05.831Z,20.25
2022-10-16T02:03:33.216Z,20.22
2022-10-16T02:05:59.916Z,20.21
2022-10-16T02:08:29.198Z,20.19
2022-10-16T02:10:56.371Z,20.18
2022-10-16T02:13:28.708Z,20.18
2022-10-16T02:15:54.984Z,20.17
2022-10-16T02:18:21.623Z,20.17
2022-10-16T02:20:51.190Z,20.16
2022-10-16T02:23:21.131Z,20.16
2022-10-16T02:25:48.414Z,20.16
2022-10-16T02:28:14.845Z,20.15
2022-10-16T02:30:52.040Z,20.13
2022-10-16T02:33:20.193Z,20.12
2022-10-16T02:35:48.378Z,20.10
2022-10-16T02:38:16.013Z,20.10
2022-10-16T02:40:43.669Z,20.09
2022-10-16T02:43:10.472Z,20.08
2022-10-16T02:45:36.856Z,20.09
2022-10-16T02:48:03.339Z,20.10
2022-10-16T02:50:29.883Z,20.13
2022-10-16T02:52:56.293Z,20.13
2022-10-16T02:55:22.679Z,20.16
2022-10-16T02:57:50.428Z,20.16
2022-10-16T03:00:17.824Z,20.18
2022-10-16T03:02:44.260Z,20.20
2022-10-16T03:05:11.246Z,20.22
2022-10-16T03:07:37.901Z,20.24
2022-10-16T03:10:04.441Z,20.25
2022-10-16T03:12:31.047Z,20.28
2022-10-16T03:14:57.783Z,20.31
2022-10-16T03:17:24.764Z,20.34
2022-10-16T03:19:51.219Z,20.36
2022-10-16T03:22:17.827Z,20.38
2022-10-16T03:24:44.291Z,20.41
2022-10-16T03:27:10.547Z,20.44
2022-10-16T03:29:37.145Z,20.48
2022-10-16T03:32:04.246Z,20.50
2022-10-16T03:34:30.604Z,20.54
2022-10-16T03:36:56.836Z,20.58
2022-10-16T03:39:23.275Z,20.61
2022-10-16T03:41:49.639Z,20.63
2022-10-16T03:44:16.297Z,20.65
2022-10-16T03:46:42.648Z,20.66
2022-10-16T03:49:09.958Z,20.68
2022-10-16T03:51:36.346Z,20.70
2022-10-16T03:54:02.657Z,20.71
2022-10-16T03:56:28.946Z,20.72
2022-10-16T03:58:55.206Z,20.73
2022-10-16T04:01:21.598Z,20.74
2022-10-16T04:03:47.842Z,20.73
2022-10-16T04:06:14.105Z,20.72
2022-10-16T04:08:43.086Z,20.71
2022-10-16T04:11:10.046Z,20.70
2022-10-16T04:13:36.292Z,20.69
2022-10-16T04:16:02.962Z,20.68
2022-10-16T04:18:29.966Z,20.64
2022-10-16T04:20:56.310Z,20.63
2022-10-16T04:23:23.849Z,20.60
2022-10-16T04:25:50.111Z,20.56
2022-10-16T04:28:16.359Z,20.54
2022-10-16T04:30:42.709Z,20.52
2022-10-16T04:33:10.189Z,20.49
2022-10-16T04:35:36.460Z,20.48
2022-10-16T04:38:02.680Z,20.45
2022-10-16T04:40:29.065Z,20.44
2022-10-16T04:42:55.358Z,20.41
2022-10-16T04:45:21.606Z,20.39
2022-10-16T04:47:48.021Z,20.38
2022-10-16T04:50:14.500Z,20.36
2022-10-16T04:52:40.994Z,20.33
2022-10-16T04:55:07.648Z,20.30
2022-10-16T04:57:34.359Z,20.26
2022-10-16T05:00:00.642Z,20.25
2022-10-16T05:02:26.908Z,20.23
2022-10-16T05:04:53.355Z,20.21
2022-10-16T05:07:19.697Z,20.19
2022-10-16T05:09:45.971Z,20.16
2022-10-16T05:12:12.210Z,20.15
2022-10-16T05:14:38.485Z,20.14
2022-10-16T05:17:04.948Z,20.13
2022-10-16T05:19:31.575Z,20.12
2022-10-16T05:21:57.936Z,20.11
2022-10-16T05:24:24.472Z,20.09
2022-10-16T05:26:50.832Z,20.09
2022-10-16T05:29:17.246Z,20.10
2022-10-16T05:31:43.569Z,20.09
2022-10-16T05:34:09.861Z,20.11
2022-10-16T05:36:36.290Z,20.11
2022-10-16T05:39:03.959Z,20.13
2022-10-16T05:41:30.468Z,20.15
2022-10-16T05:43:56.679Z,20.16
2022-10-16T05:46:22.959Z,20.18
2022-10-16T05:48:49.271Z,20.18
2022-10-16T05:51:16.368Z,20.19
2022-10-16T05:56:11.263Z,20.18
2022-10-16T05:58:38.227Z,20.17
2022-10-16T06:01:06.248Z,20.18
2022-10-16T06:03:32.618Z,20.17
2022-10-16T06:05:59.080Z,20.16
2022-10-16T06:08:25.929Z,20.16
2022-10-16T06:11:01.945Z,20.16
2022-10-16T06:13:28.551Z,20.16
2022-10-16T06:15:57.746Z,20.16
2022-10-16T06:18:24.542Z,20.16
2022-10-16T06:20:50.990Z,20.15
2022-10-16T06:23:17.423Z,20.16
2022-10-16T06:25:46.004Z,20.17
2022-10-16T06:28:12.294Z,20.17
2022-10-16T06:30:38.660Z,20.18
2022-10-16T06:33:05.074Z,20.20
2022-10-16T06:35:33.084Z,20.21
2022-10-16T06:37:59.510Z,20.22
2022-10-16T06:40:25.931Z,20.24
2022-10-16T06:42:53.039Z,20.26
2022-10-16T06:45:19.259Z,20.30
2022-10-16T06:47:45.545Z,20.32
2022-10-16T06:50:12.594Z,20.32
2022-10-16T06:52:39.344Z,20.33
2022-10-16T06:55:06.688Z,20.35
2022-10-16T06:57:33.000Z,20.37
2022-10-16T06:59:59.281Z,20.38
2022-10-16T07:02:26.103Z,20.41
2022-10-16T07:04:52.815Z,20.43
2022-10-16T07:07:19.163Z,20.48
2022-10-16T07:09:45.420Z,20.51
2022-10-16T07:12:11.694Z,20.54
2022-10-16T07:14:38.116Z,20.59
2022-10-16T07:17:04.521Z,20.63
2022-10-16T07:19:34.093Z,20.66
2022-10-16T07:22:00.760Z,20.70
2022-10-16T07:24:27.188Z,20.73
2022-10-16T07:26:53.513Z,20.79
2022-10-16T07:29:21.068Z,20.87
2022-10-16T07:31:47.819Z,20.92
2022-10-16T07:34:15.496Z,20.99
2022-10-16T07:39:09.521Z,21.12
2022-10-16T07:41:37.893Z,21.16
2022-10-16T07:44:04.542Z,21.18
2022-10-16T07:46:30.945Z,21.20
2022-10-16T07:48:57.173Z,21.19
2022-10-16T07:51:24.771Z,21.21
2022-10-16T07:53:52.051Z,21.21
2022-10-16T07:56:18.761Z,21.20
2022-10-16T07:58:45.368Z,21.19
2022-10-16T08:01:15.695Z,21.20
2022-10-16T08:03:42.900Z,21.21
2022-10-16T08:06:09.216Z,21.22
2022-10-16T08:08:36.120Z,21.23
2022-10-16T08:11:04.870Z,21.24
2022-10-16T08:13:31.485Z,21.26
2022-10-16T08:15:57.790Z,21.28
2022-10-16T08:18:24.151Z,21.32
2022-10-16T08:20:56.275Z,21.36
2022-10-16T08:23:22.524Z,21.42
2022-10-16T08:25:48.815Z,21.49
2022-10-16T08:28:15.087Z,21.55
2022-10-16T08:30:41.532Z,21.63
2022-10-16T08:33:07.778Z,21.70
2022-10-16T08:35:34.147Z,21.79
2022-10-16T08:38:00.590Z,21.88
2022-10-16T08:40:28.528Z,21.94
2022-10-16T08:43:05.265Z,22.04
2022-10-16T08:45:35.575Z,22.12
2022-10-16T08:48:17.005Z,22.20
2022-10-16T08:50:43.829Z,22.27
2022-10-16T08:53:15.813Z,22.37
2022-10-16T08:55:43.591Z,22.45
2022-10-16T08:58:14.756Z,22.52
2022-10-16T09:00:41.989Z,22.59
2022-10-16T09:03:14.995Z,22.67
2022-10-16T09:05:44.396Z,22.73
2022-10-16T09:08:31.219Z,22.79
2022-10-16T09:11:01.695Z,22.86
2022-10-16T09:13:29.652Z,22.91
2022-10-16T09:16:13.216Z,22.99
2022-10-16T09:18:55.599Z,23.03
2022-10-16T09:21:28.445Z,23.07
2022-10-16T09:23:55.325Z,23.12
2022-10-16T09:28:52.580Z,23.20
2022-10-16T09:31:20.071Z,23.23
2022-10-16T09:33:49.804Z,23.29
2022-10-16T09:36:16.303Z,23.33
2022-10-16T09:38:42.721Z,23.39
2022-10-16T09:41:22.658Z,23.44
2022-10-16T09:43:55.009Z,23.48
2022-10-16T09:46:31.762Z,23.53
2022-10-16T09:48:59.415Z,23.58
2022-10-16T09:51:25.622Z,23.63
2022-10-16T09:53:55.497Z,23.67
2022-10-16T09:56:26.906Z,23.71
2022-10-16T09:58:54.497Z,23.74
2022-10-16T10:01:21.543Z,23.78
2022-10-16T10:03:48.688Z,23.83
2022-10-16T10:06:23.551Z,23.89
2022-10-16T10:09:00.535Z,23.95
2022-10-16T10:11:39.151Z,24.01
2022-10-16T10:14:06.728Z,24.04
2022-10-16T10:16:33.002Z,24.06
2022-10-16T10:19:02.145Z,24.09
2022-10-16T10:21:28.595Z,24.10
2022-10-16T10:24:01.619Z,24.11
2022-10-16T10:26:29.974Z,24.16
2022-10-16T10:29:14.668Z,24.18
2022-10-16T10:31:57.040Z,24.23
2022-10-16T10:34:26.341Z,24.31
2022-10-16T10:36:58.884Z,24.38
2022-10-16T10:39:28.846Z,24.45
2022-10-16T10:41:57.979Z,24.52
2022-10-16T10:44:31.678Z,24.56
2022-10-16T10:47:02.214Z,24.61
2022-10-16T10:49:37.888Z,24.64
2022-10-16T10:52:22.886Z,24.66
2022-10-16T10:54:56.034Z,24.69
2022-10-16T10:57:40.553Z,24.71
2022-10-16T11:00:10.473Z,24.74
2022-10-16T11:02:39.272Z,24.73
2022-10-16T11:05:24.239Z,24.74
2022-10-16T11:07:53.524Z,24.76
2022-10-16T11:10:22.774Z,24.78
2022-10-16T11:12:55.989Z,24.82
2022-10-16T11:15:25.497Z,24.86
2022-10-16T11:18:03.691Z,24.90
2022-10-16T11:20:54.251Z,24.93
2022-10-16T11:23:49.934Z,24.96
2022-10-16T11:26:20.770Z,24.99
2022-10-16T11:28:51.434Z,25.03
2022-10-16T11:31:38.579Z,25.07
2022-10-16T11:34:16.793Z,25.12
2022-10-16T11:36:45.510Z,25.17
2022-10-16T11:39:11.738Z,25.20
2022-10-16T11:41:52.561Z,25.25
2022-10-16T11:44:18.762Z,25.31
2022-10-16T11:47:00.740Z,25.36
2022-10-16T11:49:37.511Z,25.42
2022-10-16T11:52:26.697Z,25.47
2022-10-16T11:54:59.491Z,25.48
2022-10-16T11:57:29.095Z,25.49
2022-10-16T12:00:04.626Z,25.50
2022-10-16T12:02:34.752Z,25.52
2022-10-16T12:05:19.867Z,25.53
2022-10-16T12:08:02.282Z,25.51
2022-10-16T12:10:30.386Z,25.48
2022-10-16T12:12:57.476Z,25.49
2022-10-16T12:15:46.945Z,25.48
2022-10-16T12:18:25.495Z,25.48
2022-10-16T12:21:01.745Z,25.48
2022-10-16T12:23:28.047Z,25.46
2022-10-16T12:25:55.920Z,25.45
2022-10-16T12:28:23.717Z,25.46
2022-10-16T12:30:54.967Z,25.43
2022-10-16T12:33:29.188Z,25.43
2022-10-16T12:35:56.080Z,25.44
2022-10-16T12:38:26.262Z,25.44
2022-10-16T12:41:12.008Z,25.46
2022-10-16T12:43:40.229Z,25.47
2022-10-16T12:46:22.451Z,25.51
2022-10-16T12:49:05.650Z,25.54
2022-10-16T12:51:33.261Z,25.57
2022-10-16T12:54:02.709Z,25.63
2022-10-16T12:59:22.487Z,25.77
2022-10-16T13:02:07.341Z,25.83
2022-10-16T13:04:41.626Z,25.88
2022-10-16T13:07:20.158Z,25.93
2022-10-16T13:09:46.811Z,25.98
2022-10-16T13:12:19.392Z,26.00
2022-10-16T13:14:54.873Z,26.02
2022-10-16T13:17:28.023Z,26.03
2022-10-16T13:19:57.628Z,26.04
2022-10-16T13:22:30.150Z,26.01
2022-10-16T13:25:15.411Z,25.99
2022-10-16T13:27:47.659Z,25.94
2022-10-16T13:30:28.193Z,25.89
2022-10-16T13:33:02.358Z,25.86
2022-10-16T13:35:36.077Z,25.86
2022-10-16T13:38:11.374Z,25.85
2022-10-16T13:40:37.773Z,25.86
2022-10-16T13:43:04.096Z,25.87
2022-10-16T13:45:30.915Z,25.88
2022-10-16T13:48:05.542Z,25.89
2022-10-16T13:50:32.111Z,25.91
2022-10-16T13:53:05.795Z,25.92
2022-10-16T13:55:32.345Z,25.93
2022-10-16T13:58:14.752Z,25.93
2022-10-16T14:00:42.996Z,25.92
2022-10-16T14:03:15.130Z,25.91
2022-10-16T14:05:52.661Z,25.88
2022-10-16T14:08:19.467Z,25.85
2022-10-16T14:10:50.378Z,25.80
2022-10-16T14:13:19.632Z,25.76
2022-10-16T14:15:50.029Z,25.70
2022-10-16T14:18:21.018Z,25.65
2022-10-16T14:20:47.448Z,25.61
2022-10-16T14:23:24.529Z,25.56
2022-10-16T14:25:50.897Z,25.51
2022-10-16T14:28:19.287Z,25.48
2022-10-16T14:30:56.599Z,25.44
2022-10-16T14:33:22.923Z,25.42
2022-10-16T14:35:59.811Z,25.43
2022-10-16T14:38:27.430Z,25.44
2022-10-16T14:40:54.759Z,25.48
2022-10-16T14:43:22.999Z,25.51
2022-10-16T14:45:56.809Z,25.54
2022-10-16T14:48:23.245Z,25.59
2022-10-16T14:50:49.483Z,25.58
2022-10-16T14:53:17.420Z,25.59
2022-10-16T14:55:43.941Z,25.56
2022-10-16T14:58:15.644Z,25.53
2022-10-16T15:00:41.945Z,25.48
2022-10-16T15:03:08.396Z,25.44
2022-10-16T15:05:34.663Z,25.40
2022-10-16T15:08:00.884Z,25.36
2022-10-16T15:10:28.894Z,25.33
2022-10-16T15:12:55.798Z,25.32
2022-10-16T15:15:26.130Z,25.32
2022-10-16T15:18:01.926Z,25.36
2022-10-16T15:20:29.330Z,25.39
2022-10-16T15:22:55.596Z,25.42
2022-10-16T15:25:31.633Z,25.46
2022-10-16T15:27:57.871Z,25.47
2022-10-16T15:30:24.166Z,25.49
2022-10-16T15:32:50.605Z,25.49
2022-10-16T15:35:17.188Z,25.48
2022-10-16T15:37:43.437Z,25.45
2022-10-16T15:40:11.112Z,25.42
2022-10-16T15:42:37.573Z,25.36
2022-10-16T15:45:04.999Z,25.30
2022-10-16T15:47:31.250Z,25.23
2022-10-16T15:49:57.511Z,25.16
2022-10-16T15:52:24.271Z,25.08
2022-10-16T15:54:54.325Z,25.00
2022-10-16T15:57:21.041Z,24.93
2022-10-16T15:59:49.593Z,24.85
2022-10-16T16:02:16.744Z,24.78
2022-10-16T16:04:44.367Z,24.72
2022-10-16T16:07:10.991Z,24.68
2022-10-16T16:09:37.585Z,24.63
2022-10-16T16:12:04.097Z,24.56
2022-10-16T16:14:30.415Z,24.52
2022-10-16T16:16:57.224Z,24.47
2022-10-16T16:19:23.609Z,24.45
2022-10-16T16:21:50.616Z,24.37
2022-10-16T16:24:17.934Z,24.28
2022-10-16T16:26:44.606Z,24.21
2022-10-16T16:29:14.936Z,24.20
2022-10-16T16:31:41.312Z,24.14
2022-10-16T16:34:07.647Z,24.09
2022-10-16T16:36:36.524Z,24.06
2022-10-16T16:39:03.617Z,24.09
2022-10-16T16:41:31.110Z,24.08
2022-10-16T16:44:02.822Z,24.05
2022-10-16T16:46:29.419Z,24.02
2022-10-16T16:48:56.371Z,23.99
2022-10-16T16:51:22.753Z,23.97
2022-10-16T16:53:50.421Z,23.93
2022-10-16T16:56:17.244Z,23.87
2022-10-16T16:58:46.214Z,23.83
2022-10-16T17:01:19.970Z,23.79
2022-10-16T17:03:47.588Z,23.76
2022-10-16T17:06:15.292Z,23.73
2022-10-16T17:08:41.616Z,23.69
2022-10-16T17:11:12.520Z,23.65
2022-10-16T17:13:39.332Z,23.59
2022-10-16T17:16:06.404Z,23.54
2022-10-16T17:18:33.506Z,23.51
2022-10-16T17:21:00.223Z,23.48
2022-10-16T17:23:26.656Z,23.45
2022-10-16T17:25:52.964Z,23.42
2022-10-16T17:28:19.480Z,23.38
2022-10-16T17:30:45.996Z,23.35
2022-10-16T17:33:12.622Z,23.33
2022-10-16T17:35:43.548Z,23.31
2022-10-16T17:38:10.108Z,23.29
2022-10-16T17:40:36.481Z,23.28
2022-10-16T17:43:02.939Z,23.28
2022-10-16T17:45:29.826Z,23.26
2022-10-16T17:47:58.218Z,23.26
2022-10-16T17:50:24.730Z,23.24
2022-10-16T17:52:50.997Z,23.23
2022-10-16T17:55:17.634Z,23.20
2022-10-16T17:57:44.338Z,23.18
2022-10-16T18:00:11.562Z,23.16
2022-10-16T18:02:42.244Z,23.12
2022-10-16T18:05:09.447Z,23.10
2022-10-16T18:07:35.745Z,23.06
2022-10-16T18:10:10.217Z,23.05
2022-10-16T18:12:37.398Z,23.02
2022-10-16T18:15:03.953Z,23.02
2022-10-16T18:17:31.489Z,23.00
2022-10-16T18:19:57.919Z,23.02
2022-10-16T18:22:27.364Z,23.02
2022-10-16T18:24:53.641Z,23.03
2022-10-16T18:27:20.360Z,23.02
2022-10-16T18:29:46.717Z,23.01
2022-10-16T18:32:12.948Z,23.01
2022-10-16T18:34:39.229Z,23.01
2022-10-16T18:37:05.514Z,23.00
2022-10-16T18:39:31.802Z,22.98
2022-10-16T18:42:00.070Z,22.98
2022-10-16T18:44:27.100Z,22.96
2022-10-16T18:46:56.936Z,22.95
2022-10-16T18:49:23.808Z,22.94
2022-10-16T18:51:52.952Z,22.93
2022-10-16T18:54:19.418Z,22.91
2022-10-16T18:56:45.808Z,22.90
2022-10-16T18:59:12.306Z,22.88
2022-10-16T19:01:39.134Z,22.88
2022-10-16T19:04:06.897Z,22.88
2022-10-16T19:06:34.445Z,22.84
2022-10-16T19:09:00.812Z,22.83
2022-10-16T19:11:27.345Z,22.83
2022-10-16T19:13:56.440Z,22.82
2022-10-16T19:16:26.791Z,22.80
2022-10-16T19:18:54.380Z,22.79
2022-10-16T19:21:21.410Z,22.80
2022-10-16T19:23:52.017Z,22.79
2022-10-16T19:26:19.081Z,22.77
2022-10-16T19:28:45.822Z,22.78
2022-10-16T19:31:14.184Z,22.77
2022-10-16T19:33:40.812Z,22.77
2022-10-16T19:36:26.895Z,22.75
2022-10-16T19:38:54.728Z,22.75
2022-10-16T19:41:21.161Z,22.75
2022-10-16T19:43:47.646Z,22.75
2022-10-16T19:46:15.967Z,22.76
2022-10-16T19:48:42.495Z,22.77
2022-10-16T19:51:13.054Z,22.76
2022-10-16T19:53:39.538Z,22.76
2022-10-16T19:56:16.423Z,22.74
2022-10-16T19:58:43.428Z,22.71
2022-10-16T20:01:13.730Z,22.66
2022-10-16T20:03:40.366Z,22.60
2022-10-16T20:06:07.604Z,22.55
2022-10-16T20:08:34.717Z,22.50
2022-10-16T20:11:01.138Z,22.45
2022-10-16T20:13:28.912Z,22.40
2022-10-16T20:15:55.442Z,22.32
2022-10-16T20:18:21.827Z,22.27
2022-10-16T20:20:49.525Z,22.22
2022-10-16T20:23:16.411Z,22.19
2022-10-16T20:25:42.774Z,22.16
2022-10-16T20:28:10.925Z,22.13
2022-10-16T20:30:38.519Z,22.11
2022-10-16T20:33:04.928Z,22.08
2022-10-16T20:35:35.624Z,22.06
2022-10-16T20:38:01.907Z,22.05
2022-10-16T20:40:28.185Z,22.04
2022-10-16T20:42:54.466Z,22.02
2022-10-16T20:45:20.774Z,22.00
2022-10-16T20:47:47.404Z,21.99
2022-10-16T20:50:16.348Z,21.97
2022-10-16T20:52:42.838Z,21.94
2022-10-16T20:55:09.361Z,21.92
2022-10-16T20:57:35.761Z,21.91
2022-10-16T21:00:02.087Z,21.89
2022-10-16T21:02:29.753Z,21.88
2022-10-16T21:04:55.976Z,21.86
2022-10-16T21:07:22.298Z,21.86
2022-10-16T21:09:48.744Z,21.84
2022-10-16T21:12:15.173Z,21.80
2022-10-16T21:14:51.074Z,21.78
2022-10-16T21:17:28.050Z,21.75
2022-10-16T21:19:54.358Z,21.73
2022-10-16T21:22:20.659Z,21.72
2022-10-16T21:24:46.942Z,21.72
2022-10-16T21:27:13.244Z,21.72
2022-10-16T21:29:39.765Z,21.71
2022-10-16T21:32:06.200Z,21.71
2022-10-16T21:34:32.640Z,21.73
2022-10-16T21:36:59.067Z,21.72
2022-10-16T21:39:25.501Z,21.71
2022-10-16T21:41:51.843Z,21.71
2022-10-16T21:44:20.197Z,21.69
2022-10-16T21:46:46.895Z,21.68
2022-10-16T21:49:14.555Z,21.64
2022-10-16T21:51:42.057Z,21.63
2022-10-16T21:54:10.108Z,21.59
2022-10-16T21:56:36.474Z,21.57
2022-10-16T21:59:05.566Z,21.52
2022-10-16T22:01:32.525Z,21.50
2022-10-16T22:03:58.853Z,21.47
2022-10-16T22:06:26.986Z,21.45
2022-10-16T22:08:55.155Z,21.44
2022-10-16T22:11:26.174Z,21.41
2022-10-16T22:13:54.164Z,21.38
2022-10-16T22:16:22.579Z,21.37
2022-10-16T22:18:51.043Z,21.35
2022-10-16T22:21:17.457Z,21.33
2022-10-16T22:23:43.902Z,21.28
2022-10-16T22:26:11.664Z,21.27
2022-10-16T22:28:39.202Z,21.25
2022-10-16T22:31:07.296Z,21.22
2022-10-16T22:33:35.281Z,21.20
2022-10-16T22:36:02.561Z,21.18
2022-10-16T22:38:29.789Z,21.15
2022-10-16T22:40:56.232Z,21.13
2022-10-16T22:43:22.486Z,21.11
2022-10-16T22:45:48.910Z,21.09
2022-10-16T22:48:15.725Z,21.07
2022-10-16T22:50:42.205Z,21.05
2022-10-16T22:53:08.475Z,21.05
2022-10-16T22:55:35.318Z,21.02
2022-10-16T22:58:01.559Z,21.01
2022-10-16T23:00:27.846Z,20.98
2022-10-16T23:02:55.202Z,20.96
2022-10-16T23:05:21.498Z,20.95
2022-10-16T23:07:49.830Z,20.93
2022-10-16T23:10:16.120Z,20.92
2022-10-16T23:12:42.367Z,20.89
2022-10-16T23:15:08.982Z,20.88
2022-10-16T23:17:35.241Z,20.88
2022-10-16T23:20:02.148Z,20.87
2022-10-16T23:22:28.722Z,20.83
2022-10-16T23:24:55.401Z,20.81
2022-10-16T23:27:22.342Z,20.78
2022-10-16T23:29:49.514Z,20.76
2022-10-16T23:32:15.954Z,20.75
2022-10-16T23:34:42.228Z,20.73
2022-10-16T23:37:08.595Z,20.73
2022-10-16T23:39:34.876Z,20.72
2022-10-16T23:42:01.140Z,20.71
2022-10-16T23:44:27.397Z,20.70
2022-10-16T23:46:54.045Z,20.70
2022-10-16T23:49:20.465Z,20.69
2022-10-16T23:51:46.920Z,20.65
2022-10-16T23:54:13.336Z,20.64
2022-10-16T23:56:39.619Z,20.61
2022-10-16T23:59:05.904Z,20.59
